createdAt,value
2019-03-23T16:15:37.405Z,98440.94
2019-03-23T16:20:39.895Z,98437.70
2019-03-23T16:25:41.521Z,98429.37
2019-03-23T16:30:43.208Z,98419.88
2019-03-23T16:35:44.823Z,98414.73
2019-03-23T16:40:46.599Z,98416.76
2019-03-23T16:45:48.349Z,98414.75
2019-03-23T16:50:49.954Z,98420.78
2019-03-23T16:55:51.850Z,98422.86
2019-03-23T17:00:54.414Z,98423.09
2019-03-23T17:05:56.055Z,98420.63
2019-03-23T17:10:57.681Z,98416.55
2019-03-23T17:15:59.568Z,98420.33
2019-03-23T17:21:01.279Z,98422.39
2019-03-23T17:26:03.740Z,98420.39
2019-03-23T17:31:05.325Z,98418.27
2019-03-23T17:36:06.975Z,98417.48
2019-03-23T17:41:10.371Z,98414.15
2019-03-23T17:46:12.189Z,98426.23
2019-03-23T17:51:13.759Z,98431.89
2019-03-23T17:56:15.451Z,98429.55
2019-03-23T18:01:19.644Z,98431.73
2019-03-23T18:06:20.532Z,98424.91
2019-03-23T18:11:22.209Z,98427.15
2019-03-23T18:16:23.901Z,98423.50
2019-03-23T18:21:26.038Z,98434.88
2019-03-23T18:26:47.619Z,98427.28
2019-03-23T18:31:49.353Z,98437.93
2019-03-23T18:36:52.777Z,98446.37
2019-03-23T18:41:54.339Z,98445.70
2019-03-23T18:46:56.010Z,98444.58
2019-03-23T18:51:57.560Z,98445.61
2019-03-23T18:56:59.124Z,98445.94
2019-03-23T19:02:00.742Z,98447.89
2019-03-23T19:07:02.299Z,98443.16
2019-03-23T19:12:04.153Z,98445.67
2019-03-23T19:17:05.860Z,98445.28
2019-03-23T19:22:07.475Z,98449.55
2019-03-23T19:27:09.032Z,98456.14
2019-03-23T19:32:10.593Z,98453.74
2019-03-23T19:37:12.159Z,98449.02
2019-03-23T19:42:13.708Z,98450.86
2019-03-23T19:47:15.306Z,98452.83
2019-03-23T19:52:17.097Z,98452.38
2019-03-23T19:57:18.653Z,98449.11
2019-03-23T20:02:20.217Z,98443.35
2019-03-23T20:07:21.778Z,98440.69
2019-03-23T20:12:23.687Z,98435.03
2019-03-23T20:17:25.444Z,98434.61
2019-03-23T20:22:28.104Z,98429.28
2019-03-23T20:27:29.979Z,98426.52
2019-03-23T20:32:32.672Z,98437.45
2019-03-23T20:37:34.616Z,98439.65
2019-03-23T20:42:36.379Z,98443.41
2019-03-23T20:47:39.434Z,98433.52
2019-03-23T20:52:41.116Z,98437.41
2019-03-23T20:57:42.670Z,98425.92
2019-03-23T21:02:44.237Z,98425.82
2019-03-23T21:07:45.899Z,98421.86
2019-03-23T21:12:48.611Z,98422.95
2019-03-23T21:17:51.410Z,98417.64
2019-03-23T21:22:53.299Z,98414.64
2019-03-23T21:27:54.846Z,98411.27
2019-03-23T21:32:56.416Z,98410.34
2019-03-23T21:37:58.111Z,98407.66
2019-03-23T21:42:59.671Z,98401.28
2019-03-23T21:48:01.258Z,98410.47
2019-03-23T21:53:02.918Z,98410.10
2019-03-23T21:58:04.677Z,98409.73
2019-03-23T22:03:06.339Z,98412.66
2019-03-23T22:08:07.900Z,98404.19
2019-03-23T22:13:09.463Z,98418.59
2019-03-23T22:18:11.543Z,98405.28
2019-03-23T22:23:13.148Z,98403.22
2019-03-23T22:28:14.716Z,98410.72
2019-03-23T22:33:16.283Z,98406.03
2019-03-23T22:38:17.831Z,98399.02
2019-03-23T22:43:19.424Z,98397.34
2019-03-23T22:48:20.973Z,98401.09
2019-03-23T22:53:22.616Z,98405.82
2019-03-23T22:58:24.200Z,98402.30
2019-03-23T23:03:25.802Z,98405.34
2019-03-23T23:08:27.360Z,98405.21
2019-03-23T23:13:28.953Z,98404.59
2019-03-23T23:18:30.600Z,98401.84
2019-03-23T23:23:32.196Z,98399.66
2019-03-23T23:28:33.840Z,98401.45
2019-03-23T23:33:35.414Z,98396.49
2019-03-23T23:38:37.032Z,98393.86
2019-03-23T23:43:39.024Z,98381.26
2019-03-23T23:48:50.677Z,98381.73
2019-03-23T23:53:44.039Z,98377.51
2019-03-23T23:58:45.600Z,98369.54
